Terminal Aerodrome Forecast
Issued by NWS Charleston, WV

Current Version | Previous Version | Graphics & Text | Print | Product List | Glossary On
Versions: 1 2 3 4 5 6 7 8 9 10 11 12 13 14 15 16 17 18 19 20 21 22 23 24 25
000
FTUS41 KRLX 220156 AAA
TAFEKN
TAF AMD
KEKN 220156Z 2202/2224 28006KT P6SM -SHRA BKN020 OVC045
     FM220600 30008KT P6SM OVC012
     FM221300 31006KT P6SM BKN020
     FM221600 31007KT P6SM SHRA BKN015=

USA.gov is the U.S. government's official web portal to all federal, state and local government web resources and services.